Time;durP1;ratioP1;P1;durP2;ratioP2;P2;SDS_P1;SDS_P2;PMS_P1;PMS_P2;Temp;Humidity;BMP_temperature;BMP_pressure;BME280_temperature;BME280_humidity;BME280_pressure;Samples;Min_cycle;Max_cycle;Signal;HPM_P1;HPM_P2
2022/01/28 00:03:00;;;;;;;17.40;5.10;;;3.90;99.90;;;;;;5034669;27;91922;-29
2022/01/28 00:05:22;;;;;;;17.23;6.07;;;3.90;99.90;;;;;;5033101;27;89807;-31
2022/01/28 00:07:51;;;;;;;10.48;4.10;;;4.00;99.90;;;;;;5034187;27;89691;-30
2022/01/28 00:10:19;;;;;;;17.48;4.72;;;4.00;99.90;;;;;;5034235;27;88529;-30
2022/01/28 00:15:33;;;;;;;13.43;4.63;;;4.20;99.90;;;;;;5034445;27;89376;-32
2022/01/28 00:37:23;;;;;;;11.52;3.90;;;4.30;99.90;;;;;;5033033;28;90712;-30
2022/01/28 00:39:49;;;;;;;;;;;4.20;99.90;;;;;;5034385;28;90725;-30
2022/01/28 00:42:15;;;;;;;19.67;5.15;;;4.30;99.90;;;;;;5035567;28;88072;-29
2022/01/28 00:44:41;;;;;;;20.77;4.88;;;4.30;99.90;;;;;;5033995;28;90255;-29
2022/01/28 00:47:06;;;;;;;18.02;5.07;;;4.30;99.90;;;;;;5033805;28;89826;-31
2022/01/28 00:49:32;;;;;;;18.45;4.63;;;4.20;99.90;;;;;;5033758;28;89354;-32
2022/01/28 00:51:58;;;;;;;19.92;5.90;;;4.20;99.90;;;;;;5033940;28;87659;-30
2022/01/28 00:54:24;;;;;;;15.70;4.68;;;4.20;99.90;;;;;;5034310;28;90765;-32
2022/01/28 00:56:49;;;;;;;12.93;4.72;;;4.20;99.90;;;;;;5033532;28;88701;-31
2022/01/28 00:59:15;;;;;;;16.80;5.57;;;4.30;99.90;;;;;;5033568;28;92823;-30
2022/01/28 01:01:41;;;;;;;13.77;4.85;;;4.40;99.90;;;;;;5033617;28;88079;-31
2022/01/28 01:04:07;;;;;;;12.00;3.15;;;4.30;99.90;;;;;;5033058;28;90175;-31
2022/01/28 01:06:34;;;;;;;16.95;4.53;;;4.30;99.90;;;;;;5033532;27;89651;-30
2022/01/28 01:09:00;;;;;;;14.55;4.00;;;4.20;99.90;;;;;;5033528;28;89593;-30
2022/01/28 01:11:27;;;;;;;14.98;4.13;;;4.20;99.90;;;;;;5033882;27;88029;-31
2022/01/28 01:13:53;;;;;;;11.73;4.43;;;4.30;99.90;;;;;;5033563;27;90241;-33
2022/01/28 01:16:28;;;;;;;10.40;3.38;;;4.30;99.90;;;;;;5033283;28;89937;-31
2022/01/28 01:21:54;;;;;;;13.02;4.28;;;4.30;99.90;;;;;;5019201;28;89730;-33
2022/01/28 01:24:23;;;;;;;11.75;3.40;;;4.40;99.90;;;;;;5033342;27;90616;-30
2022/01/28 01:26:48;;;;;;;13.70;5.15;;;4.40;99.90;;;;;;5032928;28;89917;-33
2022/01/28 01:29:17;;;;;;;15.23;4.18;;;4.40;99.90;;;;;;5032157;28;90277;-31
2022/01/28 01:31:43;;;;;;;17.83;4.85;;;4.50;99.90;;;;;;5033378;28;87902;-30
2022/01/28 01:34:19;;;;;;;13.93;4.65;;;4.40;99.90;;;;;;5032702;27;90204;-30
2022/01/28 01:36:45;;;;;;;11.00;4.18;;;4.40;99.90;;;;;;5032188;27;89587;-37
2022/01/28 01:39:21;;;;;;;12.35;3.42;;;4.40;99.90;;;;;;5037000;27;88432;-29
2022/01/28 01:41:55;;;;;;;14.90;2.92;;;4.40;99.90;;;;;;5036854;27;87876;-32
2022/01/28 01:45:36;;;;;;;13.52;4.53;;;4.50;99.90;;;;;;5037224;28;90285;-33
2022/01/28 01:52:23;;;;;;;16.25;5.93;;;4.50;99.90;;;;;;5036129;28;88963;-30
2022/01/28 01:54:50;;;;;;;18.00;4.75;;;4.50;99.90;;;;;;5035806;28;93748;-33
2022/01/28 01:57:17;;;;;;;21.58;5.25;;;4.50;99.90;;;;;;5036598;28;89608;-30
2022/01/28 01:59:43;;;;;;;21.20;5.45;;;4.40;99.90;;;;;;5036413;27;88225;-30
2022/01/28 02:02:09;;;;;;;12.27;4.63;;;4.40;99.90;;;;;;5036514;27;88024;-33
2022/01/28 02:04:35;;;;;;;20.05;4.93;;;4.50;99.90;;;;;;5036033;27;88877;-31
2022/01/28 02:07:01;;;;;;;11.57;4.72;;;4.50;99.90;;;;;;5035752;28;89616;-33
2022/01/28 02:09:27;;;;;;;15.38;4.95;;;4.40;99.90;;;;;;5036464;28;88263;-29
2022/01/28 02:11:53;;;;;;;18.90;5.22;;;4.50;99.90;;;;;;5036585;28;88561;-32
2022/01/28 02:14:19;;;;;;;20.33;5.25;;;4.50;99.90;;;;;;5036249;28;90548;-32
2022/01/28 02:16:45;;;;;;;14.68;4.93;;;4.60;99.90;;;;;;5035648;28;90681;-33
2022/01/28 02:19:10;;;;;;;18.73;4.40;;;4.50;99.90;;;;;;5035515;27;90639;-31
2022/01/28 02:21:50;;;;;;;17.08;5.68;;;4.50;99.90;;;;;;5036556;27;89030;-29
2022/01/28 02:24:21;;;;;;;19.33;5.50;;;4.50;99.90;;;;;;5036185;27;90195;-29
2022/01/28 02:26:46;;;;;;;13.65;5.15;;;4.50;99.90;;;;;;5036189;27;89653;-30
2022/01/28 02:29:15;;;;;;;12.68;5.05;;;4.40;99.90;;;;;;5035951;28;89503;-31
2022/01/28 02:31:41;;;;;;;;;;;4.30;99.90;;;;;;5036472;28;87682;-32
2022/01/28 02:34:10;;;;;;;12.45;4.63;;;4.30;99.90;;;;;;5037118;28;89504;-35
2022/01/28 02:36:37;;;;;;;26.00;6.20;;;4.20;99.90;;;;;;5035501;27;89586;-33
2022/01/28 02:39:04;;;;;;;13.60;5.25;;;4.30;99.90;;;;;;5035329;27;89985;-29
2022/01/28 02:41:34;;;;;;;16.50;4.60;;;4.30;99.90;;;;;;5035757;28;88658;-31
2022/01/28 02:44:16;;;;;;;20.63;5.78;;;4.40;99.90;;;;;;5035601;27;90339;-32
2022/01/28 02:46:53;;;;;;;30.25;4.47;;;4.50;99.90;;;;;;5035435;27;90038;-30
2022/01/28 02:49:20;;;;;;;18.93;6.37;;;4.50;99.90;;;;;;5033483;28;90042;-32
2022/01/28 02:51:46;;;;;;;26.00;6.22;;;4.60;99.90;;;;;;5036034;27;87580;-29
2022/01/28 02:54:14;;;;;;;18.48;6.20;;;4.60;99.90;;;;;;5035531;27;90233;-29
2022/01/28 02:56:47;;;;;;;25.60;5.68;;;4.60;99.90;;;;;;5035083;28;89466;-30
2022/01/28 02:59:13;;;;;;;16.98;4.63;;;4.60;99.90;;;;;;5035414;28;89725;-33
2022/01/28 03:01:38;;;;;;;24.63;7.05;;;4.60;99.90;;;;;;5035451;28;87683;-29
2022/01/28 03:04:06;;;;;;;18.95;5.88;;;4.70;99.90;;;;;;5034809;28;90059;-32
2022/01/28 03:06:32;;;;;;;24.98;6.55;;;4.70;99.90;;;;;;5034554;28;90703;-33
2022/01/28 03:09:16;;;;;;;24.73;5.38;;;4.70;99.90;;;;;;5034924;28;90488;-30
2022/01/28 03:14:17;;;;;;;28.50;6.68;;;4.70;99.90;;;;;;5035372;28;90345;-31
2022/01/28 03:19:21;;;;;;;18.30;7.20;;;4.60;99.90;;;;;;5035184;27;88868;-31
2022/01/28 03:22:03;;;;;;;23.20;6.20;;;4.60;99.90;;;;;;5035479;28;88264;-30
2022/01/28 03:24:29;;;;;;;21.73;6.75;;;4.60;99.90;;;;;;5035416;27;89994;-30
2022/01/28 03:27:10;;;;;;;26.02;6.57;;;4.60;99.90;;;;;;5034992;28;89583;-32
2022/01/28 03:29:35;;;;;;;18.50;6.45;;;4.60;99.90;;;;;;5034927;28;88350;-29
2022/01/28 03:32:01;;;;;;;24.15;6.00;;;4.60;99.90;;;;;;5034683;28;89568;-30
2022/01/28 03:34:26;;;;;;;19.58;6.22;;;4.50;99.90;;;;;;5034521;28;90044;-31
2022/01/28 03:36:52;;;;;;;22.40;5.15;;;4.60;99.90;;;;;;5034315;28;89508;-33
2022/01/28 03:39:18;;;;;;;16.00;5.75;;;4.60;99.90;;;;;;5035338;27;89211;-29
2022/01/28 03:41:43;;;;;;;25.60;5.47;;;4.60;99.90;;;;;;5035119;28;87705;-30
2022/01/28 03:44:09;;;;;;;16.52;6.28;;;4.60;99.90;;;;;;5034488;28;90430;-31
2022/01/28 03:46:35;;;;;;;18.35;5.22;;;4.60;99.90;;;;;;5034613;28;88682;-32
2022/01/28 03:49:01;;;;;;;21.58;5.53;;;4.60;99.90;;;;;;5034636;28;89775;-30
2022/01/28 03:51:28;;;;;;;16.52;6.03;;;4.70;99.90;;;;;;5035120;28;88994;-30
2022/01/28 03:53:53;;;;;;;22.17;6.90;;;4.70;99.90;;;;;;5034672;28;89952;-33
2022/01/28 03:56:19;;;;;;;16.98;6.18;;;4.70;99.90;;;;;;5034241;28;90737;-30
2022/01/28 03:58:45;;;;;;;22.27;6.32;;;4.70;99.90;;;;;;5035013;27;90686;-33
2022/01/28 04:01:22;;;;;;;26.33;5.70;;;4.80;99.90;;;;;;5033789;28;88209;-30
2022/01/28 04:04:04;;;;;;;24.58;7.03;;;4.90;99.90;;;;;;5034751;27;90395;-31
2022/01/28 04:11:59;;;;;;;22.08;5.60;;;5.00;99.90;;;;;;5034197;28;87637;-31
2022/01/28 04:19:35;;;;;;;16.48;5.57;;;5.00;99.90;;;;;;5034164;28;88905;-31
2022/01/28 04:22:01;;;;;;;18.92;5.30;;;4.90;99.90;;;;;;5033427;28;88931;-30
2022/01/28 04:24:26;;;;;;;19.70;5.10;;;5.00;99.90;;;;;;5034337;28;90247;-33
2022/01/28 04:26:52;;;;;;;24.67;6.32;;;4.90;99.90;;;;;;5033619;28;89006;-33
2022/01/28 04:29:17;;;;;;;11.52;5.38;;;4.90;99.90;;;;;;5033905;28;89232;-31
2022/01/28 04:31:46;;;;;;;15.70;4.40;;;4.90;99.90;;;;;;5034064;28;88131;-31
2022/01/28 04:34:16;;;;;;;14.60;4.68;;;4.90;99.90;;;;;;5033468;28;89998;-32
2022/01/28 04:36:55;;;;;;;13.48;4.78;;;4.90;99.90;;;;;;5034038;27;89679;-32
2022/01/28 04:39:34;;;;;;;13.50;4.47;;;4.90;99.90;;;;;;5034102;27;89627;-31
2022/01/28 04:44:43;;;;;;;12.57;5.70;;;5.00;99.90;;;;;;5035415;27;88938;-30
2022/01/28 04:47:49;;;;;;;21.60;6.63;;;4.80;99.90;;;;;;5032923;28;90671;-30
2022/01/28 05:26:53;;;;;;;;;;;4.10;99.90;;;;;;5037135;27;89080;-33
2022/01/28 05:29:18;;;;;;;21.38;6.43;;;4.10;99.90;;;;;;5038124;28;90018;-30
2022/01/28 05:31:44;;;;;;;6.30;4.07;;;4.10;99.90;;;;;;5037141;28;88576;-28
2022/01/28 05:34:09;;;;;;;25.10;7.32;;;4.20;99.90;;;;;;5036256;28;87719;-31
2022/01/28 05:36:35;;;;;;;21.17;6.97;;;4.20;99.90;;;;;;5036731;28;90439;-31
2022/01/28 05:39:01;;;;;;;21.70;5.95;;;4.20;99.90;;;;;;5035835;28;90567;-29
2022/01/28 05:41:26;;;;;;;26.45;6.63;;;4.20;99.90;;;;;;5036354;28;90142;-31
2022/01/28 05:43:52;;;;;;;20.75;5.53;;;4.20;99.90;;;;;;5036832;28;88355;-32
2022/01/28 05:46:18;;;;;;;26.83;6.90;;;4.10;99.90;;;;;;5036467;28;90813;-30
2022/01/28 05:48:44;;;;;;;16.73;5.93;;;4.10;99.90;;;;;;5036337;27;89644;-29
2022/01/28 05:51:11;;;;;;;19.40;7.03;;;4.00;99.90;;;;;;5036192;27;88318;-30
2022/01/28 05:53:37;;;;;;;27.30;6.72;;;3.90;99.90;;;;;;5036825;28;87920;-30
2022/01/28 05:56:03;;;;;;;21.10;6.50;;;3.90;99.90;;;;;;5036433;27;90178;-29
2022/01/28 05:58:28;;;;;;;22.52;7.15;;;3.80;99.90;;;;;;5036615;28;89604;-34
2022/01/28 06:00:54;;;;;;;15.18;5.22;;;3.70;99.90;;;;;;5036183;28;89526;-32
2022/01/28 06:03:19;;;;;;;17.80;6.10;;;3.70;99.90;;;;;;5035730;27;87980;-30
2022/01/28 06:05:47;;;;;;;24.15;7.43;;;3.60;99.90;;;;;;5035866;27;90685;-31
2022/01/28 06:08:13;;;;;;;20.95;6.13;;;3.70;99.90;;;;;;5036199;28;89105;-30
2022/01/28 06:10:38;;;;;;;15.88;5.90;;;3.70;99.90;;;;;;5036014;28;88618;-30
2022/01/28 06:13:05;;;;;;;26.15;6.78;;;3.70;99.90;;;;;;5036093;28;88925;-32
2022/01/28 06:15:31;;;;;;;26.50;6.60;;;3.70;99.90;;;;;;5036090;28;90338;-30
2022/01/28 06:17:57;;;;;;;25.33;7.32;;;3.80;99.90;;;;;;5036373;27;89412;-34
2022/01/28 06:20:22;;;;;;;21.42;6.38;;;3.70;99.90;;;;;;5035935;28;89305;-30
2022/01/28 06:22:49;;;;;;;23.63;5.75;;;3.80;99.90;;;;;;5035787;28;88700;-32
2022/01/28 06:25:15;;;;;;;20.08;5.78;;;3.80;99.90;;;;;;5035639;27;88921;-30
2022/01/28 06:27:42;;;;;;;31.42;6.40;;;3.90;99.90;;;;;;5035382;28;89456;-30
2022/01/28 06:30:09;;;;;;;24.10;6.32;;;3.90;99.90;;;;;;5035622;28;90447;-33
2022/01/28 06:32:34;;;;;;;18.63;6.07;;;4.10;99.90;;;;;;5036695;27;87574;-33
2022/01/28 06:35:02;;;;;;;16.77;5.85;;;4.10;99.90;;;;;;5035695;28;90326;-34
2022/01/28 06:37:28;;;;;;;26.57;6.90;;;4.10;99.90;;;;;;5035517;28;88801;-30
2022/01/28 06:39:53;;;;;;;19.42;6.30;;;4.10;99.90;;;;;;5036152;28;88134;-30
2022/01/28 06:42:19;;;;;;;21.70;6.00;;;4.00;99.90;;;;;;5035621;28;88338;-29
2022/01/28 06:44:44;;;;;;;16.48;5.22;;;4.10;99.90;;;;;;5035745;28;90143;-32
2022/01/28 06:47:11;;;;;;;24.50;5.55;;;4.10;99.90;;;;;;5034943;28;89713;-30
2022/01/28 06:49:38;;;;;;;25.95;5.78;;;4.20;99.90;;;;;;5036008;28;89693;-30
2022/01/28 06:52:05;;;;;;;30.83;7.00;;;4.10;99.90;;;;;;5035268;28;88074;-30
2022/01/28 06:54:31;;;;;;;18.13;6.97;;;4.20;99.90;;;;;;5035249;27;90246;-30
2022/01/28 06:56:56;;;;;;;24.65;7.63;;;4.30;99.90;;;;;;5035588;28;88676;-32
2022/01/28 06:59:22;;;;;;;20.45;6.40;;;4.30;99.90;;;;;;5035381;28;89684;-30
2022/01/28 07:01:47;;;;;;;29.63;8.57;;;4.30;99.90;;;;;;5035530;28;87997;-30
2022/01/28 07:04:14;;;;;;;26.02;6.82;;;4.40;99.90;;;;;;5035331;28;90154;-33
2022/01/28 07:06:39;;;;;;;19.70;5.85;;;4.40;99.90;;;;;;5034445;28;88817;-31
2022/01/28 07:09:06;;;;;;;20.00;5.20;;;4.40;99.90;;;;;;5035281;27;89471;-30
2022/01/28 07:11:32;;;;;;;24.23;7.38;;;4.40;99.90;;;;;;5035746;28;87597;-30
2022/01/28 07:13:58;;;;;;;22.63;5.93;;;4.40;99.90;;;;;;5032935;28;90223;-29
2022/01/28 07:16:23;;;;;;;19.27;6.00;;;4.40;99.90;;;;;;5033205;28;91035;-30
2022/01/28 07:18:49;;;;;;;17.65;6.18;;;4.30;99.90;;;;;;5034785;28;90715;-34
2022/01/28 07:21:14;;;;;;;32.08;7.18;;;4.20;99.90;;;;;;5035273;28;88795;-32
2022/01/28 07:23:40;;;;;;;14.95;5.57;;;4.20;99.90;;;;;;5035370;28;90813;-30
2022/01/28 07:26:05;;;;;;;27.65;7.22;;;4.10;99.90;;;;;;5034636;28;89048;-31
2022/01/28 07:28:32;;;;;;;16.67;5.97;;;4.00;99.90;;;;;;5035533;28;89011;-30
2022/01/28 07:30:57;;;;;;;27.90;6.53;;;4.00;99.90;;;;;;5035094;28;87746;-29
2022/01/28 07:33:23;;;;;;;27.05;5.80;;;3.90;99.90;;;;;;5034917;28;90303;-29
2022/01/28 07:35:48;;;;;;;23.50;6.75;;;3.90;99.90;;;;;;5034380;27;90126;-29
2022/01/28 07:38:14;;;;;;;27.77;6.07;;;3.80;99.90;;;;;;5034490;28;92036;-30
2022/01/28 07:40:39;;;;;;;17.75;6.43;;;3.80;99.90;;;;;;5034152;28;88994;-31
2022/01/28 07:43:05;;;;;;;30.00;6.88;;;3.80;99.90;;;;;;5034848;28;90400;-38
2022/01/28 07:45:30;;;;;;;24.90;7.63;;;3.80;99.90;;;;;;5034659;28;89683;-29
2022/01/28 07:47:56;;;;;;;26.02;5.65;;;3.80;99.90;;;;;;5032713;28;89380;-31
2022/01/28 07:50:22;;;;;;;25.25;6.35;;;3.70;99.90;;;;;;5034591;28;87790;-31
2022/01/28 07:52:47;;;;;;;18.30;5.60;;;3.70;99.90;;;;;;4994083;27;90090;-32
2022/01/28 07:55:14;;;;;;;24.55;6.13;;;3.70;99.90;;;;;;5035521;27;88059;-31
2022/01/28 07:57:41;;;;;;;27.02;6.55;;;3.70;99.90;;;;;;5034955;27;88617;-31
2022/01/28 08:00:09;;;;;;;18.83;6.20;;;3.70;99.90;;;;;;5032524;28;89474;-35
2022/01/28 08:02:35;;;;;;;18.83;4.78;;;3.70;99.90;;;;;;5037871;27;90198;-28
2022/01/28 08:05:00;;;;;;;20.85;6.97;;;3.70;99.90;;;;;;5054391;27;90657;-32
2022/01/28 08:07:26;;;;;;;23.40;5.32;;;3.70;99.90;;;;;;5054915;27;90600;-30
2022/01/28 08:09:52;;;;;;;24.00;5.85;;;3.60;99.90;;;;;;5054972;27;87697;-32
2022/01/28 08:12:18;;;;;;;16.20;5.97;;;3.60;99.90;;;;;;5054729;27;90350;-30
2022/01/28 08:14:43;;;;;;;31.25;8.00;;;3.60;99.90;;;;;;5054200;27;89739;-31
2022/01/28 08:17:11;;;;;;;24.27;6.60;;;3.50;99.90;;;;;;5053975;27;88388;-31
2022/01/28 08:19:37;;;;;;;25.20;6.27;;;3.50;99.90;;;;;;5054593;27;87943;-34
2022/01/28 08:22:03;;;;;;;20.27;6.50;;;3.60;99.90;;;;;;5054517;27;90348;-32
2022/01/28 08:24:28;;;;;;;34.80;7.72;;;3.60;99.90;;;;;;5054119;27;89826;-33
2022/01/28 08:26:54;;;;;;;24.30;6.90;;;3.60;99.90;;;;;;5054312;27;89349;-29
2022/01/28 08:29:21;;;;;;;18.65;6.63;;;3.60;99.90;;;;;;5053858;27;88478;-29
2022/01/28 08:31:46;;;;;;;27.98;6.25;;;3.70;99.90;;;;;;5053997;27;88902;-31
2022/01/28 08:34:12;;;;;;;23.98;6.88;;;3.70;99.90;;;;;;5053988;27;89584;-30
2022/01/28 08:36:38;;;;;;;23.35;6.30;;;3.80;99.90;;;;;;5054278;27;90089;-30
2022/01/28 08:39:05;;;;;;;30.15;5.88;;;3.90;99.90;;;;;;5054861;27;87933;-30
2022/01/28 08:41:36;;;;;;;26.05;7.35;;;3.90;99.90;;;;;;5054040;27;90123;-29
2022/01/28 08:44:03;;;;;;;18.40;6.05;;;4.00;99.90;;;;;;5054574;27;89722;-30
2022/01/28 08:46:29;;;;;;;21.52;6.07;;;4.00;99.90;;;;;;5053343;27;89525;-29
2022/01/28 08:48:55;;;;;;;31.83;6.95;;;4.10;99.90;;;;;;5053670;27;87626;-31
2022/01/28 08:51:21;;;;;;;24.80;7.10;;;4.20;99.90;;;;;;5053295;27;89271;-34
2022/01/28 08:53:47;;;;;;;30.95;6.72;;;4.30;99.90;;;;;;5053915;27;90253;-29
2022/01/28 08:56:13;;;;;;;16.85;6.30;;;4.30;99.90;;;;;;5053455;27;90502;-32
2022/01/28 08:58:38;;;;;;;22.35;5.90;;;4.40;99.90;;;;;;5035272;27;87937;-31
2022/01/28 09:01:04;;;;;;;22.75;6.18;;;4.60;99.90;;;;;;5030324;27;89336;-30
2022/01/28 09:03:29;;;;;;;19.30;5.93;;;4.70;99.90;;;;;;5029853;28;88455;-32
2022/01/28 09:05:55;;;;;;;18.55;5.05;;;4.80;99.90;;;;;;5030793;27;89236;-31
2022/01/28 09:08:21;;;;;;;19.65;5.97;;;5.00;99.90;;;;;;5017566;27;88485;-33
2022/01/28 09:10:57;;;;;;;26.98;7.72;;;5.20;99.90;;;;;;5010390;28;90020;-31
2022/01/28 09:13:26;;;;;;;15.88;4.90;;;5.50;99.90;;;;;;5010748;28;88503;-29
2022/01/28 09:15:55;;;;;;;23.08;5.60;;;5.50;99.90;;;;;;5010651;28;90089;-31
2022/01/28 09:18:21;;;;;;;;;;;5.60;99.90;;;;;;5010988;28;88694;-30
2022/01/28 09:20:47;;;;;;;22.10;6.65;;;5.70;99.90;;;;;;5011883;28;90558;-31
2022/01/28 09:23:13;;;;;;;24.63;6.70;;;5.80;99.90;;;;;;5010313;28;89927;-33
2022/01/28 09:25:39;;;;;;;26.05;6.47;;;5.90;99.90;;;;;;5010421;28;90210;-31
2022/01/28 09:28:05;;;;;;;24.90;6.03;;;6.10;99.90;;;;;;5011055;28;88677;-33
2022/01/28 09:30:31;;;;;;;25.85;6.13;;;6.10;99.90;;;;;;5009206;28;90140;-30
2022/01/28 09:32:58;;;;;;;20.75;6.15;;;6.00;99.90;;;;;;5010172;28;89677;-33
2022/01/28 09:35:24;;;;;;;15.63;5.32;;;5.90;99.90;;;;;;5007508;28;88522;-31
2022/01/28 09:37:51;;;;;;;20.73;6.43;;;5.90;99.90;;;;;;5020430;28;87682;-30
2022/01/28 09:40:17;;;;;;;22.45;6.57;;;5.90;99.90;;;;;;5009724;28;90234;-32
2022/01/28 09:42:45;;;;;;;26.30;6.55;;;6.00;99.90;;;;;;5008809;28;90821;-30
2022/01/28 09:45:16;;;;;;;28.15;6.70;;;6.10;99.90;;;;;;5009437;28;90314;-31
2022/01/28 09:47:42;;;;;;;22.05;6.25;;;6.20;99.90;;;;;;5010111;28;88139;-30
2022/01/28 09:50:08;;;;;;;29.58;6.97;;;6.40;99.90;;;;;;5010479;28;90385;-31
2022/01/28 09:52:34;;;;;;;22.58;7.65;;;6.50;99.90;;;;;;5008228;28;89168;-31
2022/01/28 09:55:00;;;;;;;20.13;5.97;;;6.50;99.90;;;;;;5010167;28;88958;-32
2022/01/28 09:57:26;;;;;;;20.02;6.13;;;6.60;99.90;;;;;;5008659;28;88576;-31
2022/01/28 09:59:51;;;;;;;18.33;5.38;;;6.60;99.90;;;;;;5013563;28;90197;-30
2022/01/28 10:02:17;;;;;;;24.23;6.25;;;6.70;99.90;;;;;;5011423;28;89753;-35
2022/01/28 10:04:43;;;;;;;21.42;6.30;;;6.70;99.90;;;;;;5013329;28;89516;-30
2022/01/28 10:07:11;;;;;;;29.00;6.57;;;6.80;99.90;;;;;;5012781;28;88876;-35
2022/01/28 10:09:37;;;;;;;18.40;7.05;;;6.90;99.90;;;;;;5013167;28;90114;-33
2022/01/28 10:12:24;;;;;;;22.95;6.13;;;7.00;99.90;;;;;;5012746;28;89734;-31
2022/01/28 10:15:16;;;;;;;20.23;5.28;;;7.00;99.90;;;;;;5011794;28;89446;-31
2022/01/28 10:17:56;;;;;;;22.25;6.38;;;7.00;99.90;;;;;;5013367;28;88021;-31
2022/01/28 10:20:23;;;;;;;21.20;6.55;;;6.90;99.90;;;;;;5013173;28;90434;-31
2022/01/28 10:22:57;;;;;;;17.92;5.38;;;7.00;99.90;;;;;;5012855;28;90029;-34
2022/01/28 10:25:31;;;;;;;30.00;6.88;;;7.00;99.90;;;;;;5013734;28;89352;-32
2022/01/28 10:28:03;;;;;;;27.58;7.18;;;7.00;99.90;;;;;;5012996;28;87626;-31
2022/01/28 10:30:34;;;;;;;17.15;5.55;;;7.00;99.90;;;;;;5012875;28;90137;-33
2022/01/28 10:33:29;;;;;;;24.10;7.00;;;6.90;99.90;;;;;;5012371;28;90763;-32
2022/01/28 10:35:57;;;;;;;22.83;6.13;;;7.00;99.90;;;;;;5003085;28;90508;-33
2022/01/28 10:38:36;;;;;;;18.10;5.97;;;7.00;99.90;;;;;;5013343;28;88472;-32
2022/01/28 10:41:17;;;;;;;22.02;6.53;;;6.90;99.90;;;;;;5013423;28;90374;-30
2022/01/28 10:43:49;;;;;;;22.92;6.35;;;7.00;99.90;;;;;;5012769;28;88451;-30
2022/01/28 10:46:30;;;;;;;10.20;5.15;;;7.00;99.90;;;;;;5012824;28;88641;-32
2022/01/28 10:49:06;;;;;;;26.20;7.18;;;7.10;99.90;;;;;;5011811;28;87687;-30
2022/01/28 10:51:43;;;;;;;23.75;6.78;;;7.20;99.90;;;;;;5012655;28;90338;-30
2022/01/28 10:54:11;;;;;;;22.33;6.82;;;7.20;99.90;;;;;;5010438;28;89771;-33
2022/01/28 10:56:57;;;;;;;17.45;6.65;;;7.30;99.90;;;;;;5012463;28;90236;-33
2022/01/28 10:59:25;;;;;;;19.15;6.35;;;7.20;99.90;;;;;;5012178;28;89825;-32
2022/01/28 11:01:51;;;;;;;23.17;5.53;;;7.30;99.90;;;;;;5010245;28;90180;-29
2022/01/28 11:04:19;;;;;;;26.13;6.45;;;7.30;99.90;;;;;;5010363;28;89753;-36
2022/01/28 11:06:46;;;;;;;17.33;5.97;;;7.40;99.90;;;;;;5012734;28;89820;-33
2022/01/28 11:09:13;;;;;;;26.27;6.05;;;7.40;99.90;;;;;;5011229;28;89641;-30
2022/01/28 11:11:40;;;;;;;24.65;7.18;;;7.40;99.90;;;;;;5012112;28;90111;-29
2022/01/28 11:14:07;;;;;;;29.92;6.53;;;7.50;99.90;;;;;;5017279;28;89902;-31
2022/01/28 11:16:33;;;;;;;25.23;7.72;;;7.50;99.90;;;;;;5032455;28;89223;-29
2022/01/28 11:18:59;;;;;;;20.88;6.28;;;7.40;99.90;;;;;;5032327;28;87689;-31
2022/01/28 11:21:49;;;;;;;27.63;7.10;;;7.50;99.90;;;;;;5032095;28;90226;-34
2022/01/28 11:24:34;;;;;;;15.75;6.07;;;7.50;99.90;;;;;;5031436;28;90564;-30
2022/01/28 11:27:25;;;;;;;27.80;5.63;;;7.60;99.90;;;;;;5032756;28;90790;-29
2022/01/28 11:29:50;;;;;;;19.63;6.18;;;7.70;99.90;;;;;;5032729;28;87935;-31
2022/01/28 11:32:18;;;;;;;17.40;6.05;;;7.80;99.90;;;;;;5031917;28;90152;-30
2022/01/28 11:34:57;;;;;;;20.50;5.90;;;7.80;99.90;;;;;;5031969;28;89693;-32
2022/01/28 11:37:29;;;;;;;24.65;6.05;;;7.80;99.90;;;;;;5032418;28;89413;-31
2022/01/28 11:40:07;;;;;;;25.48;6.10;;;7.90;99.90;;;;;;5032751;28;88142;-30
2022/01/28 11:42:33;;;;;;;20.02;6.03;;;7.90;99.90;;;;;;5032181;28;90245;-30
2022/01/28 11:45:01;;;;;;;17.52;6.05;;;7.90;99.90;;;;;;5031228;28;89614;-32
2022/01/28 11:47:33;;;;;;;21.48;5.65;;;7.90;99.90;;;;;;5065926;22;89558;-32
2022/01/28 11:50:09;;;;;;;26.08;5.63;;;7.90;99.90;;;;;;5031907;28;89061;-30
2022/01/28 11:52:42;;;;;;;19.88;5.30;;;7.90;99.90;;;;;;5032286;28;90519;-30
2022/01/28 11:55:14;;;;;;;18.80;6.32;;;7.90;99.90;;;;;;5032594;28;89534;-33
2022/01/28 11:58:09;;;;;;;16.35;4.45;;;7.90;99.90;;;;;;5032216;28;89457;-30
2022/01/28 12:00:43;;;;;;;23.90;5.82;;;7.90;99.90;;;;;;5032046;28;87791;-30
2022/01/28 12:03:19;;;;;;;20.25;6.10;;;7.80;99.90;;;;;;5031129;28;90147;-33
2022/01/28 12:05:47;;;;;;;19.02;5.43;;;7.80;99.90;;;;;;5031384;28;89808;-34
2022/01/28 12:08:15;;;;;;;12.50;4.50;;;7.70;99.90;;;;;;5031760;28;90295;-31
2022/01/28 12:10:44;;;;;;;16.70;4.03;;;7.70;99.90;;;;;;4997290;28;87599;-32
2022/01/28 12:13:13;;;;;;;22.40;5.53;;;7.70;99.90;;;;;;5031323;28;89043;-30
2022/01/28 12:15:59;;;;;;;14.20;4.82;;;7.70;99.90;;;;;;5031443;28;89269;-31
2022/01/28 12:18:25;;;;;;;12.57;4.65;;;7.70;99.90;;;;;;5031466;28;90359;-33
2022/01/28 12:20:51;;;;;;;24.00;6.10;;;7.70;99.90;;;;;;5031110;27;88499;-32
2022/01/28 12:23:16;;;;;;;21.33;6.30;;;7.60;99.90;;;;;;5031209;28;90135;-33
2022/01/28 12:25:42;;;;;;;13.23;4.53;;;7.80;99.90;;;;;;5031962;28;90096;-31
2022/01/28 12:28:28;;;;;;;15.20;4.90;;;7.70;99.90;;;;;;5013796;28;89744;-30
2022/01/28 12:31:12;;;;;;;17.33;4.45;;;7.70;99.90;;;;;;5031957;28;87886;-29
2022/01/28 12:33:44;;;;;;;19.08;5.38;;;7.70;99.90;;;;;;5031803;28;90234;-32
2022/01/28 12:36:12;;;;;;;19.92;6.25;;;7.70;99.90;;;;;;5031038;28;89448;-32
2022/01/28 12:38:58;;;;;;;21.15;5.30;;;7.60;99.90;;;;;;5031932;28;89472;-30
2022/01/28 12:41:25;;;;;;;27.50;5.60;;;7.60;99.90;;;;;;5030868;28;90129;-31
2022/01/28 12:43:51;;;;;;;22.40;5.68;;;7.50;99.90;;;;;;5031061;28;90185;-30
2022/01/28 12:46:17;;;;;;;21.30;5.63;;;7.40;99.90;;;;;;5031202;28;91094;-32
2022/01/28 12:48:52;;;;;;;24.77;4.10;;;7.40;99.90;;;;;;5030636;28;88858;-31
2022/01/28 12:51:21;;;;;;;22.35;6.18;;;7.50;99.90;;;;;;5031776;28;88289;-33
2022/01/28 12:53:53;;;;;;;14.30;5.00;;;7.50;99.90;;;;;;5031478;28;90740;-31
2022/01/28 12:56:36;;;;;;;15.13;4.10;;;7.50;99.90;;;;;;5031211;28;90000;-31
2022/01/28 12:59:03;;;;;;;23.75;5.65;;;7.40;99.90;;;;;;5031564;28;89800;-31
2022/01/28 13:01:29;;;;;;;19.75;7.40;;;7.40;99.90;;;;;;5031316;28;89592;-34
2022/01/28 13:04:10;;;;;;;22.08;4.65;;;7.40;99.90;;;;;;5030601;28;91428;-31
2022/01/28 13:09:16;;;;;;;14.95;4.75;;;7.70;99.90;;;;;;5010661;28;90279;-30
2022/01/28 13:11:42;;;;;;;20.88;5.20;;;7.90;99.90;;;;;;5010646;28;87757;-33
2022/01/28 13:14:10;;;;;;;28.90;5.93;;;7.80;99.90;;;;;;5010244;28;90504;-30
2022/01/28 13:16:40;;;;;;;21.88;4.97;;;7.80;99.90;;;;;;5030653;28;91404;-31
2022/01/28 13:19:07;;;;;;;18.85;4.80;;;7.70;99.90;;;;;;5030377;28;89607;-31
2022/01/28 13:21:33;;;;;;;14.20;4.43;;;7.70;99.90;;;;;;5030293;27;87907;-33
2022/01/28 13:24:20;;;;;;;12.98;4.82;;;7.70;99.90;;;;;;5028987;28;90223;-31
2022/01/28 13:26:59;;;;;;;28.00;5.57;;;7.60;99.90;;;;;;5030945;27;89864;-30
2022/01/28 13:29:31;;;;;;;;;;;7.50;99.90;;;;;;5031141;28;89683;-32
2022/01/28 13:31:58;;;;;;;12.30;5.30;;;7.60;99.90;;;;;;5032174;27;88700;-33
2022/01/28 13:34:25;;;;;;;16.23;4.97;;;7.50;99.90;;;;;;5033403;27;89984;-31
2022/01/28 13:36:53;;;;;;;13.52;4.13;;;7.50;99.90;;;;;;5034183;27;90887;-30
2022/01/28 13:39:21;;;;;;;14.32;4.85;;;7.30;99.90;;;;;;5033302;28;89903;-35
2022/01/28 13:41:50;;;;;;;20.50;4.38;;;7.30;99.90;;;;;;5033752;28;87741;-30
2022/01/28 13:44:25;;;;;;;20.40;6.00;;;7.20;99.90;;;;;;5033251;28;90526;-30
2022/01/28 13:46:58;;;;;;;18.45;5.20;;;7.30;99.90;;;;;;5033522;28;89949;-31
2022/01/28 13:49:31;;;;;;;20.45;4.97;;;7.20;99.90;;;;;;5033761;28;89086;-30
2022/01/28 13:52:08;;;;;;;19.13;5.72;;;7.30;99.90;;;;;;5033569;28;89093;-29
2022/01/28 13:54:34;;;;;;;21.75;5.10;;;7.30;99.90;;;;;;5033259;28;89222;-33
2022/01/28 13:57:01;;;;;;;16.77;5.20;;;7.30;99.90;;;;;;5015193;28;90638;-31
2022/01/28 13:59:30;;;;;;;15.17;5.50;;;7.30;99.90;;;;;;5034151;28;88109;-31
2022/01/28 14:01:59;;;;;;;15.65;4.20;;;7.30;99.90;;;;;;5034024;28;89046;-30
2022/01/28 14:04:33;;;;;;;;;;;7.20;99.90;;;;;;5032998;28;90406;-32
2022/01/28 14:07:21;;;;;;;19.55;5.13;;;7.10;99.90;;;;;;5034879;28;90052;-30
2022/01/28 14:09:58;;;;;;;14.18;4.13;;;7.10;99.90;;;;;;5033512;28;89469;-32
2022/01/28 14:12:53;;;;;;;16.40;4.40;;;7.10;99.90;;;;;;5033248;28;87900;-33
2022/01/28 14:15:39;;;;;;;19.42;5.57;;;7.10;99.90;;;;;;5032064;27;90048;-30
2022/01/28 14:18:05;;;;;;;11.77;4.85;;;7.10;99.90;;;;;;5031830;28;89607;-33
2022/01/28 14:20:31;;;;;;;24.25;5.93;;;7.10;99.90;;;;;;5033394;28;89593;-31
2022/01/28 14:22:58;;;;;;;26.00;5.30;;;7.10;99.90;;;;;;5032081;28;88748;-32
2022/01/28 14:25:24;;;;;;;19.10;5.55;;;7.10;99.90;;;;;;5032571;28;90253;-32
2022/01/28 14:30:36;;;;;;;16.77;4.93;;;7.10;99.90;;;;;;5032785;28;89314;-34